Airport View

Enter AWOS ICAO identifier for current METAR.

ex. KFNL

KGGG 250953Z AUTO 06004KT 10SM OVC009 12/09 A2998 RMK AO2 SLP150 T01220094

25 Oct 2020 10:26

Phone: 903-643-4029

Other Area AWOS: KRFI - KASL - KJXI - KTYR

TAF KGGG 250541Z 2506/2606 09004KT P6SM OVC010 TEMPO 2509/2513 6SM BR OVC007 FM251300 11005KT P6SM OVC015 FM252100 14007KT P6SM BKN025 FM260300 11006KT P6SM OVC012